sensor_id;sensor_type;location;lat;lon;timestamp;temperature;humidity
24632;DHT22;59977;48.782;9.190;2022-11-15T00:01:45;10.80;99.90
24632;DHT22;59977;48.782;9.190;2022-11-15T00:04:14;10.30;99.90
24632;DHT22;59977;48.782;9.190;2022-11-15T00:06:39;10.50;99.90
24632;DHT22;59977;48.782;9.190;2022-11-15T00:09:05;11.00;99.90
24632;DHT22;59977;48.782;9.190;2022-11-15T00:11:31;9.50;99.90
24632;DHT22;59977;48.782;9.190;2022-11-15T00:13:58;10.30;99.90
24632;DHT22;59977;48.782;9.190;2022-11-15T00:16:24;10.30;99.90
24632;DHT22;59977;48.782;9.190;2022-11-15T00:18:50;11.20;99.90
24632;DHT22;59977;48.782;9.190;2022-11-15T00:21:17;11.50;99.90
24632;DHT22;59977;48.782;9.190;2022-11-15T00:23:43;10.30;99.90
24632;DHT22;59977;48.782;9.190;2022-11-15T00:26:13;10.30;99.90
24632;DHT22;59977;48.782;9.190;2022-11-15T00:28:39;10.90;99.90
24632;DHT22;59977;48.782;9.190;2022-11-15T00:31:07;10.30;99.90
24632;DHT22;59977;48.782;9.190;2022-11-15T00:33:34;10.30;99.90
24632;DHT22;59977;48.782;9.190;2022-11-15T00:36:02;10.30;99.90
24632;DHT22;59977;48.782;9.190;2022-11-15T00:38:35;10.00;99.90
24632;DHT22;59977;48.782;9.190;2022-11-15T00:41:02;10.40;99.90
24632;DHT22;59977;48.782;9.190;2022-11-15T14:13:34;13.90;99.90
24632;DHT22;59977;48.782;9.190;2022-11-15T14:16:18;13.80;99.90
24632;DHT22;59977;48.782;9.190;2022-11-15T14:18:47;13.70;99.90
24632;DHT22;59977;48.782;9.190;2022-11-15T14:21:13;13.70;99.90
24632;DHT22;59977;48.782;9.190;2022-11-15T14:23:40;13.70;99.90
24632;DHT22;59977;48.782;9.190;2022-11-15T14:26:05;14.20;99.90
24632;DHT22;59977;48.782;9.190;2022-11-15T14:28:33;13.80;99.90
24632;DHT22;59977;48.782;9.190;2022-11-15T14:31:04;13.70;99.90
24632;DHT22;59977;48.782;9.190;2022-11-15T14:33:34;13.60;99.90
24632;DHT22;59977;48.782;9.190;2022-11-15T14:36:12;13.70;99.90
24632;DHT22;59977;48.782;9.190;2022-11-15T14:38:38;13.70;99.90
24632;DHT22;59977;48.782;9.190;2022-11-15T14:41:04;13.80;99.90
24632;DHT22;59977;48.782;9.190;2022-11-15T14:43:31;13.70;99.90
24632;DHT22;59977;48.782;9.190;2022-11-15T14:45:57;13.70;99.90
24632;DHT22;59977;48.782;9.190;2022-11-15T14:48:22;14.00;99.90
24632;DHT22;59977;48.782;9.190;2022-11-15T14:50:48;14.10;99.90
24632;DHT22;59977;48.782;9.190;2022-11-15T14:53:17;13.80;99.90
24632;DHT22;59977;48.782;9.190;2022-11-15T14:55:44;13.80;99.90
24632;DHT22;59977;48.782;9.190;2022-11-15T14:58:10;14.20;99.90
24632;DHT22;59977;48.782;9.190;2022-11-15T15:00:37;13.80;99.90
24632;DHT22;59977;48.782;9.190;2022-11-15T15:03:04;13.80;99.90
24632;DHT22;59977;48.782;9.190;2022-11-15T15:05:38;13.80;99.90
24632;DHT22;59977;48.782;9.190;2022-11-15T15:08:05;13.70;99.90
24632;DHT22;59977;48.782;9.190;2022-11-15T15:10:34;13.80;99.90
24632;DHT22;59977;48.782;9.190;2022-11-15T15:13:00;13.80;99.90
24632;DHT22;59977;48.782;9.190;2022-11-15T15:15:31;14.30;99.90
24632;DHT22;59977;48.782;9.190;2022-11-15T15:18:00;13.50;99.90
24632;DHT22;59977;48.782;9.190;2022-11-15T15:20:26;13.50;99.90
24632;DHT22;59977;48.782;9.190;2022-11-15T15:22:52;13.40;99.90
24632;DHT22;59977;48.782;9.190;2022-11-15T15:25:27;13.60;99.90
24632;DHT22;59977;48.782;9.190;2022-11-15T15:27:53;13.40;99.90
24632;DHT22;59977;48.782;9.190;2022-11-15T15:30:20;13.60;99.90
24632;DHT22;59977;48.782;9.190;2022-11-15T15:32:46;13.70;99.90
24632;DHT22;59977;48.782;9.190;2022-11-15T15:35:13;13.70;99.90
24632;DHT22;59977;48.782;9.190;2022-11-15T15:37:40;13.60;99.90
24632;DHT22;59977;48.782;9.190;2022-11-15T15:40:20;13.70;99.90
24632;DHT22;59977;48.782;9.190;2022-11-15T15:42:47;13.30;99.90
24632;DHT22;59977;48.782;9.190;2022-11-15T15:45:13;13.40;99.90
24632;DHT22;59977;48.782;9.190;2022-11-15T15:47:40;14.30;99.90
24632;DHT22;59977;48.782;9.190;2022-11-15T15:50:25;13.50;99.90
24632;DHT22;59977;48.782;9.190;2022-11-15T15:52:53;13.10;99.90
24632;DHT22;59977;48.782;9.190;2022-11-15T15:55:19;13.20;99.90
24632;DHT22;59977;48.782;9.190;2022-11-15T15:57:46;13.20;99.90
24632;DHT22;59977;48.782;9.190;2022-11-15T16:00:12;13.10;99.90
24632;DHT22;59977;48.782;9.190;2022-11-15T16:02:38;13.10;99.90
24632;DHT22;59977;48.782;9.190;2022-11-15T16:05:04;13.10;99.90
24632;DHT22;59977;48.782;9.190;2022-11-15T16:07:30;13.10;99.90
24632;DHT22;59977;48.782;9.190;2022-11-15T16:09:56;13.40;99.90
24632;DHT22;59977;48.782;9.190;2022-11-15T16:12:33;13.20;99.90
24632;DHT22;59977;48.782;9.190;2022-11-15T16:14:59;13.50;99.90
24632;DHT22;59977;48.782;9.190;2022-11-15T16:17:30;13.30;99.90
24632;DHT22;59977;48.782;9.190;2022-11-15T16:19:57;13.20;99.90
24632;DHT22;59977;48.782;9.190;2022-11-15T16:22:23;13.20;99.90
24632;DHT22;59977;48.782;9.190;2022-11-15T16:24:48;13.40;99.90
24632;DHT22;59977;48.782;9.190;2022-11-15T16:27:16;13.80;99.90
24632;DHT22;59977;48.782;9.190;2022-11-15T16:29:42;13.20;99.90
24632;DHT22;59977;48.782;9.190;2022-11-15T16:32:08;13.20;99.90
24632;DHT22;59977;48.782;9.190;2022-11-15T16:34:34;13.20;99.90
24632;DHT22;59977;48.782;9.190;2022-11-15T16:36:59;14.10;99.90
24632;DHT22;59977;48.782;9.190;2022-11-15T16:39:25;13.30;99.90
24632;DHT22;59977;48.782;9.190;2022-11-15T16:41:53;13.30;99.90
24632;DHT22;59977;48.782;9.190;2022-11-15T16:44:18;13.30;99.90
24632;DHT22;59977;48.782;9.190;2022-11-15T16:46:44;13.30;99.90
24632;DHT22;59977;48.782;9.190;2022-11-15T16:49:17;13.20;99.90
24632;DHT22;59977;48.782;9.190;2022-11-15T16:51:44;13.30;99.90
24632;DHT22;59977;48.782;9.190;2022-11-15T16:54:11;13.20;99.90
24632;DHT22;59977;48.782;9.190;2022-11-15T16:56:37;13.20;99.90
24632;DHT22;59977;48.782;9.190;2022-11-15T16:59:03;13.40;99.90
24632;DHT22;59977;48.782;9.190;2022-11-15T17:01:34;13.50;99.90
24632;DHT22;59977;48.782;9.190;2022-11-15T17:04:00;13.20;99.90
24632;DHT22;59977;48.782;9.190;2022-11-15T17:06:38;13.20;99.90
24632;DHT22;59977;48.782;9.190;2022-11-15T17:09:05;13.20;99.90
24632;DHT22;59977;48.782;9.190;2022-11-15T17:11:30;14.30;99.90
24632;DHT22;59977;48.782;9.190;2022-11-15T17:13:57;13.20;99.90
24632;DHT22;59977;48.782;9.190;2022-11-15T17:16:24;13.30;99.90
24632;DHT22;59977;48.782;9.190;2022-11-15T17:18:50;13.60;99.90
24632;DHT22;59977;48.782;9.190;2022-11-15T17:21:18;13.10;99.90
24632;DHT22;59977;48.782;9.190;2022-11-15T17:23:44;13.10;99.90
24632;DHT22;59977;48.782;9.190;2022-11-15T17:26:12;13.10;99.90
24632;DHT22;59977;48.782;9.190;2022-11-15T17:28:38;13.10;99.90
24632;DHT22;59977;48.782;9.190;2022-11-15T17:31:09;13.10;99.90
24632;DHT22;59977;48.782;9.190;2022-11-15T17:33:36;13.10;99.90
24632;DHT22;59977;48.782;9.190;2022-11-15T17:36:04;13.20;99.90
24632;DHT22;59977;48.782;9.190;2022-11-15T17:38:30;13.20;99.90
24632;DHT22;59977;48.782;9.190;2022-11-15T17:41:01;13.20;99.90
24632;DHT22;59977;48.782;9.190;2022-11-15T17:43:29;13.20;99.90
24632;DHT22;59977;48.782;9.190;2022-11-15T17:45:55;13.40;99.90
24632;DHT22;59977;48.782;9.190;2022-11-15T17:48:21;13.10;99.90
24632;DHT22;59977;48.782;9.190;2022-11-15T17:51:01;13.10;99.90
24632;DHT22;59977;48.782;9.190;2022-11-15T17:53:31;13.10;99.90
24632;DHT22;59977;48.782;9.190;2022-11-15T17:56:00;13.10;99.90
24632;DHT22;59977;48.782;9.190;2022-11-15T17:58:26;13.10;99.90
24632;DHT22;59977;48.782;9.190;2022-11-15T18:00:52;13.80;99.90
24632;DHT22;59977;48.782;9.190;2022-11-15T18:03:17;13.10;99.90
24632;DHT22;59977;48.782;9.190;2022-11-15T18:05:43;13.80;99.90
24632;DHT22;59977;48.782;9.190;2022-11-15T18:08:12;13.40;99.90
24632;DHT22;59977;48.782;9.190;2022-11-15T18:10:40;13.20;99.90
24632;DHT22;59977;48.782;9.190;2022-11-15T18:13:06;13.30;99.90
24632;DHT22;59977;48.782;9.190;2022-11-15T18:15:32;13.10;99.90
24632;DHT22;59977;48.782;9.190;2022-11-15T18:17:57;13.20;99.90
24632;DHT22;59977;48.782;9.190;2022-11-15T18:20:23;13.70;99.90
24632;DHT22;59977;48.782;9.190;2022-11-15T18:22:52;13.20;99.90
24632;DHT22;59977;48.782;9.190;2022-11-15T18:25:18;13.20;99.90
24632;DHT22;59977;48.782;9.190;2022-11-15T18:27:43;13.10;99.90
24632;DHT22;59977;48.782;9.190;2022-11-15T18:30:09;13.20;99.90
24632;DHT22;59977;48.782;9.190;2022-11-15T18:32:35;13.10;99.90
24632;DHT22;59977;48.782;9.190;2022-11-15T18:35:01;13.10;99.90
24632;DHT22;59977;48.782;9.190;2022-11-15T18:37:26;13.00;99.90
24632;DHT22;59977;48.782;9.190;2022-11-15T18:39:52;13.10;99.90
24632;DHT22;59977;48.782;9.190;2022-11-15T18:42:18;13.10;99.90
24632;DHT22;59977;48.782;9.190;2022-11-15T18:44:44;13.10;99.90
24632;DHT22;59977;48.782;9.190;2022-11-15T18:47:09;13.10;99.90
24632;DHT22;59977;48.782;9.190;2022-11-15T18:49:35;13.10;99.90
24632;DHT22;59977;48.782;9.190;2022-11-15T18:52:00;13.10;99.90
24632;DHT22;59977;48.782;9.190;2022-11-15T18:54:26;13.10;99.90
24632;DHT22;59977;48.782;9.190;2022-11-15T18:56:52;13.10;99.90
24632;DHT22;59977;48.782;9.190;2022-11-15T18:59:18;13.70;99.90
24632;DHT22;59977;48.782;9.190;2022-11-15T19:01:45;13.20;99.90
24632;DHT22;59977;48.782;9.190;2022-11-15T19:04:20;13.00;99.90
24632;DHT22;59977;48.782;9.190;2022-11-15T19:06:47;13.10;99.90
24632;DHT22;59977;48.782;9.190;2022-11-15T19:09:15;13.10;99.90
24632;DHT22;59977;48.782;9.190;2022-11-15T19:11:42;13.90;99.90
24632;DHT22;59977;48.782;9.190;2022-11-15T19:14:13;13.70;99.90
24632;DHT22;59977;48.782;9.190;2022-11-15T19:16:41;13.10;99.90
24632;DHT22;59977;48.782;9.190;2022-11-15T19:19:16;13.50;99.90
24632;DHT22;59977;48.782;9.190;2022-11-15T19:21:42;13.10;99.90
24632;DHT22;59977;48.782;9.190;2022-11-15T19:24:09;13.10;99.90
24632;DHT22;59977;48.782;9.190;2022-11-15T19:26:38;13.80;99.90
24632;DHT22;59977;48.782;9.190;2022-11-15T19:29:05;13.10;99.90
24632;DHT22;59977;48.782;9.190;2022-11-15T19:31:32;13.10;99.90
24632;DHT22;59977;48.782;9.190;2022-11-15T19:33:59;13.10;99.90
24632;DHT22;59977;48.782;9.190;2022-11-15T19:36:28;13.10;99.90
24632;DHT22;59977;48.782;9.190;2022-11-15T19:38:56;13.30;99.90
24632;DHT22;59977;48.782;9.190;2022-11-15T19:41:23;13.10;99.90
24632;DHT22;59977;48.782;9.190;2022-11-15T19:43:49;13.10;99.90
24632;DHT22;59977;48.782;9.190;2022-11-15T19:46:15;13.00;99.90
24632;DHT22;59977;48.782;9.190;2022-11-15T19:48:42;13.00;99.90
24632;DHT22;59977;48.782;9.190;2022-11-15T19:51:15;13.00;99.90
24632;DHT22;59977;48.782;9.190;2022-11-15T19:53:43;12.80;99.90
24632;DHT22;59977;48.782;9.190;2022-11-15T19:56:12;13.00;99.90
24632;DHT22;59977;48.782;9.190;2022-11-15T19:58:38;13.00;99.90
24632;DHT22;59977;48.782;9.190;2022-11-15T20:03:32;13.10;99.90
24632;DHT22;59977;48.782;9.190;2022-11-15T20:06:10;13.00;99.90
24632;DHT22;59977;48.782;9.190;2022-11-15T20:08:36;13.00;99.90
24632;DHT22;59977;48.782;9.190;2022-11-15T20:11:02;13.50;99.90
24632;DHT22;59977;48.782;9.190;2022-11-15T20:13:29;13.00;99.90
24632;DHT22;59977;48.782;9.190;2022-11-15T20:18:25;13.00;99.90
24632;DHT22;59977;48.782;9.190;2022-11-15T20:20:51;13.00;99.90
24632;DHT22;59977;48.782;9.190;2022-11-15T20:23:17;13.10;99.90
24632;DHT22;59977;48.782;9.190;2022-11-15T20:25:46;13.80;99.90
24632;DHT22;59977;48.782;9.190;2022-11-15T20:28:21;13.40;99.90
24632;DHT22;59977;48.782;9.190;2022-11-15T20:30:50;12.90;99.90
24632;DHT22;59977;48.782;9.190;2022-11-15T20:33:15;13.40;99.90
24632;DHT22;59977;48.782;9.190;2022-11-15T20:35:42;12.90;99.90
24632;DHT22;59977;48.782;9.190;2022-11-15T20:38:11;13.80;99.90
24632;DHT22;59977;48.782;9.190;2022-11-15T20:40:38;13.10;99.90
24632;DHT22;59977;48.782;9.190;2022-11-15T20:43:05;13.80;99.90
24632;DHT22;59977;48.782;9.190;2022-11-15T20:45:31;14.40;99.90
24632;DHT22;59977;48.782;9.190;2022-11-15T20:47:57;12.70;99.90
24632;DHT22;59977;48.782;9.190;2022-11-15T20:50:24;12.70;99.90
24632;DHT22;59977;48.782;9.190;2022-11-15T20:52:51;12.80;99.90
24632;DHT22;59977;48.782;9.190;2022-11-15T20:55:17;14.30;99.90
24632;DHT22;59977;48.782;9.190;2022-11-15T20:57:43;12.70;99.90
24632;DHT22;59977;48.782;9.190;2022-11-15T21:00:10;13.30;99.90
24632;DHT22;59977;48.782;9.190;2022-11-15T21:02:35;12.80;99.90
24632;DHT22;59977;48.782;9.190;2022-11-15T21:05:01;13.50;99.90
24632;DHT22;59977;48.782;9.190;2022-11-15T21:07:27;12.90;99.90
24632;DHT22;59977;48.782;9.190;2022-11-15T21:09:52;12.80;99.90
24632;DHT22;59977;48.782;9.190;2022-11-15T21:12:36;12.80;99.90
24632;DHT22;59977;48.782;9.190;2022-11-15T21:15:03;12.80;99.90
24632;DHT22;59977;48.782;9.190;2022-11-15T21:17:28;12.80;99.90
24632;DHT22;59977;48.782;9.190;2022-11-15T21:19:54;13.90;99.90
24632;DHT22;59977;48.782;9.190;2022-11-15T21:22:20;12.70;99.90
24632;DHT22;59977;48.782;9.190;2022-11-15T21:24:45;12.80;99.90
24632;DHT22;59977;48.782;9.190;2022-11-15T21:27:11;14.20;99.90
24632;DHT22;59977;48.782;9.190;2022-11-15T21:29:37;13.10;99.90
24632;DHT22;59977;48.782;9.190;2022-11-15T21:32:07;14.20;99.90
24632;DHT22;59977;48.782;9.190;2022-11-15T21:34:34;12.80;99.90
24632;DHT22;59977;48.782;9.190;2022-11-15T21:37:00;14.10;99.90
24632;DHT22;59977;48.782;9.190;2022-11-15T21:39:25;12.80;99.90
24632;DHT22;59977;48.782;9.190;2022-11-15T21:41:51;13.30;99.90
24632;DHT22;59977;48.782;9.190;2022-11-15T21:44:17;12.80;99.90
24632;DHT22;59977;48.782;9.190;2022-11-15T21:46:42;12.70;99.90
24632;DHT22;59977;48.782;9.190;2022-11-15T21:49:08;12.50;99.90
24632;DHT22;59977;48.782;9.190;2022-11-15T21:51:34;12.60;99.90
24632;DHT22;59977;48.782;9.190;2022-11-15T21:54:00;13.20;99.90
24632;DHT22;59977;48.782;9.190;2022-11-15T21:56:26;13.80;99.90
24632;DHT22;59977;48.782;9.190;2022-11-15T21:58:53;12.60;99.90
24632;DHT22;59977;48.782;9.190;2022-11-15T22:01:19;12.90;99.90
24632;DHT22;59977;48.782;9.190;2022-11-15T22:04:04;12.70;99.90
24632;DHT22;59977;48.782;9.190;2022-11-15T22:06:33;12.70;99.90
24632;DHT22;59977;48.782;9.190;2022-11-15T22:09:00;13.50;99.90
24632;DHT22;59977;48.782;9.190;2022-11-15T22:11:27;13.30;99.90
24632;DHT22;59977;48.782;9.190;2022-11-15T22:13:53;12.50;99.90
24632;DHT22;59977;48.782;9.190;2022-11-15T22:16:18;12.70;99.90
24632;DHT22;59977;48.782;9.190;2022-11-15T22:18:44;13.70;99.90
24632;DHT22;59977;48.782;9.190;2022-11-15T22:21:12;12.70;99.90
24632;DHT22;59977;48.782;9.190;2022-11-15T22:23:38;12.70;99.90
24632;DHT22;59977;48.782;9.190;2022-11-15T22:26:05;12.60;99.90
24632;DHT22;59977;48.782;9.190;2022-11-15T22:28:32;12.60;99.90
24632;DHT22;59977;48.782;9.190;2022-11-15T22:30:58;12.50;99.90
24632;DHT22;59977;48.782;9.190;2022-11-15T22:33:26;12.50;99.90
24632;DHT22;59977;48.782;9.190;2022-11-15T22:35:52;12.50;99.90
24632;DHT22;59977;48.782;9.190;2022-11-15T22:38:19;12.50;99.90
24632;DHT22;59977;48.782;9.190;2022-11-15T22:40:45;12.60;99.90
24632;DHT22;59977;48.782;9.190;2022-11-15T22:43:12;12.60;99.90
24632;DHT22;59977;48.782;9.190;2022-11-15T22:45:55;12.70;99.90
24632;DHT22;59977;48.782;9.190;2022-11-15T22:48:39;12.70;99.90
24632;DHT22;59977;48.782;9.190;2022-11-15T22:51:05;12.70;99.90
24632;DHT22;59977;48.782;9.190;2022-11-15T22:53:31;11.70;99.90
24632;DHT22;59977;48.782;9.190;2022-11-15T22:55:58;12.60;99.90
24632;DHT22;59977;48.782;9.190;2022-11-15T22:58:27;12.70;99.90
24632;DHT22;59977;48.782;9.190;2022-11-15T23:00:55;12.60;99.90
24632;DHT22;59977;48.782;9.190;2022-11-15T23:03:22;12.60;99.90
24632;DHT22;59977;48.782;9.190;2022-11-15T23:05:48;12.60;99.90
24632;DHT22;59977;48.782;9.190;2022-11-15T23:08:14;12.60;99.90
24632;DHT22;59977;48.782;9.190;2022-11-15T23:10:40;12.50;99.90
24632;DHT22;59977;48.782;9.190;2022-11-15T23:13:26;12.50;99.90
24632;DHT22;59977;48.782;9.190;2022-11-15T23:16:01;12.50;99.90
24632;DHT22;59977;48.782;9.190;2022-11-15T23:18:45;12.60;99.90
24632;DHT22;59977;48.782;9.190;2022-11-15T23:21:14;12.60;99.90
24632;DHT22;59977;48.782;9.190;2022-11-15T23:23:41;12.60;99.90
24632;DHT22;59977;48.782;9.190;2022-11-15T23:26:07;12.60;99.90
24632;DHT22;59977;48.782;9.190;2022-11-15T23:28:33;12.60;99.90
24632;DHT22;59977;48.782;9.190;2022-11-15T23:31:06;12.60;99.90
24632;DHT22;59977;48.782;9.190;2022-11-15T23:33:50;12.50;99.90
24632;DHT22;59977;48.782;9.190;2022-11-15T23:36:23;12.60;99.90
24632;DHT22;59977;48.782;9.190;2022-11-15T23:38:48;12.60;99.90
24632;DHT22;59977;48.782;9.190;2022-11-15T23:41:14;12.60;99.90
24632;DHT22;59977;48.782;9.190;2022-11-15T23:43:40;12.60;99.90
24632;DHT22;59977;48.782;9.190;2022-11-15T23:46:05;12.60;99.90
24632;DHT22;59977;48.782;9.190;2022-11-15T23:48:31;12.50;99.90
24632;DHT22;59977;48.782;9.190;2022-11-15T23:50:57;12.50;99.90
24632;DHT22;59977;48.782;9.190;2022-11-15T23:53:23;12.50;99.90
